Time;durP1;ratioP1;P1;durP2;ratioP2;P2;SDS_P1;SDS_P2;PMS_P1;PMS_P2;Temp;Humidity;BMP_temperature;BMP_pressure;BME280_temperature;BME280_humidity;BME280_pressure;Samples;Min_cycle;Max_cycle;Signal;HPM_P1;HPM_P2
2023/01/02 00:01:23;;;;;;;14.60;4.47;;;12.70;1.00;;;;;;5017258;28;20567;-61
2023/01/02 00:03:50;;;;;;;9.87;4.60;;;12.70;1.00;;;;;;5056576;28;20468;-58
2023/01/02 00:06:17;;;;;;;8.53;4.40;;;12.80;1.00;;;;;;5057960;28;20764;-61
2023/01/02 00:08:44;;;;;;;6.77;4.33;;;12.80;1.00;;;;;;5058243;28;20539;-61
2023/01/02 00:11:13;;;;;;;6.50;3.93;;;12.80;1.00;;;;;;5058391;28;20498;-60
2023/01/02 00:13:40;;;;;;;11.57;5.27;;;12.90;1.00;;;;;;5058063;28;20982;-59
2023/01/02 00:16:08;;;;;;;10.23;4.50;;;13.00;1.00;;;;;;5057503;28;20463;-61
2023/01/02 00:18:35;;;;;;;10.23;4.00;;;13.00;1.00;;;;;;5057851;28;20490;-60
2023/01/02 00:21:03;;;;;;;12.63;4.40;;;13.10;1.00;;;;;;5057751;28;20532;-61
2023/01/02 00:23:31;;;;;;;9.20;4.43;;;13.10;99.90;;;;;;5044714;28;20872;-60
2023/01/02 00:25:58;;;;;;;12.10;4.43;;;13.10;99.90;;;;;;5018496;28;20877;-62
2023/01/02 00:28:27;;;;;;;9.17;4.23;;;13.10;99.90;;;;;;5017709;28;20558;-60
2023/01/02 00:30:54;;;;;;;13.33;4.23;;;13.20;99.90;;;;;;5017180;28;20474;-61
2023/01/02 00:33:21;;;;;;;7.70;4.23;;;13.20;99.90;;;;;;5018111;28;20906;-60
2023/01/02 00:35:48;;;;;;;8.77;4.57;;;13.20;99.90;;;;;;5018167;28;20470;-59
2023/01/02 00:38:17;;;;;;;7.90;4.10;;;13.20;1.00;;;;;;5017670;28;20582;-59
2023/01/02 00:40:44;;;;;;;11.37;4.90;;;13.10;1.00;;;;;;5018104;28;20468;-58
2023/01/02 00:43:12;;;;;;;9.60;4.60;;;13.00;1.00;;;;;;5017888;28;20468;-60
2023/01/02 00:45:40;;;;;;;11.40;4.57;;;12.90;1.00;;;;;;5017865;28;20482;-60
2023/01/02 00:48:07;;;;;;;7.20;4.47;;;12.80;1.00;;;;;;5017785;28;20873;-58
2023/01/02 00:50:34;;;;;;;6.90;4.67;;;12.80;1.00;;;;;;5017397;28;20463;-62
2023/01/02 00:53:01;;;;;;;8.83;4.27;;;12.70;1.00;;;;;;5017412;28;20907;-57
2023/01/02 00:55:29;;;;;;;10.00;4.10;;;12.80;1.00;;;;;;5017715;28;20470;-59
2023/01/02 00:57:56;;;;;;;9.00;4.23;;;12.80;1.00;;;;;;5017663;28;20492;-60
2023/01/02 01:00:23;;;;;;;11.53;4.53;;;12.70;1.00;;;;;;5017531;28;20825;-61
2023/01/02 01:02:58;;;;;;;6.30;3.80;;;12.70;1.00;;;;;;5017159;28;20558;-61
2023/01/02 01:05:25;;;;;;;9.10;5.43;;;12.70;1.00;;;;;;5017486;28;20492;-61
2023/01/02 01:07:54;;;;;;;6.93;4.97;;;12.70;1.00;;;;;;5017409;28;20464;-59
2023/01/02 01:10:22;;;;;;;12.40;5.27;;;12.70;1.00;;;;;;5016683;28;20475;-61
2023/01/02 01:12:49;;;;;;;9.63;4.57;;;12.70;1.00;;;;;;5017217;28;20468;-61
2023/01/02 01:15:17;;;;;;;11.60;5.87;;;12.70;1.00;;;;;;5017531;28;20828;-59
2023/01/02 01:17:44;;;;;;;8.83;3.80;;;12.70;1.00;;;;;;5017351;28;20499;-59
2023/01/02 01:20:12;;;;;;;9.00;4.33;;;12.70;1.00;;;;;;5017091;28;20462;-59
2023/01/02 01:22:40;;;;;;;13.00;3.80;;;12.70;1.00;;;;;;5016764;28;20460;-60
2023/01/02 01:25:07;;;;;;;9.53;4.37;;;12.70;1.00;;;;;;5017194;28;20460;-60
2023/01/02 01:27:35;;;;;;;7.67;4.10;;;12.70;1.00;;;;;;5016940;28;20537;-60
2023/01/02 01:30:02;;;;;;;7.90;4.53;;;12.70;1.00;;;;;;5015923;28;20462;-59
2023/01/02 01:32:29;;;;;;;7.77;4.90;;;12.70;1.00;;;;;;5016940;28;20464;-59
2023/01/02 01:34:56;;;;;;;9.60;3.80;;;12.80;1.00;;;;;;5021672;28;20764;-60
2023/01/02 01:37:25;;;;;;;7.30;4.10;;;12.90;1.00;;;;;;5025473;28;20492;-58
2023/01/02 01:39:52;;;;;;;5.90;3.77;;;13.00;1.00;;;;;;5024806;28;20461;-57
2023/01/02 01:42:20;;;;;;;10.13;4.50;;;13.00;1.00;;;;;;5018369;28;20483;-60
2023/01/02 01:44:49;;;;;;;8.47;4.50;;;13.10;1.00;;;;;;5025507;28;20462;-59
2023/01/02 01:47:22;;;;;;;11.47;4.20;;;13.10;99.90;;;;;;5022673;28;20902;-58
2023/01/02 01:49:53;;;;;;;8.87;4.90;;;13.10;99.90;;;;;;5024588;28;20741;-58
2023/01/02 01:52:24;;;;;;;7.67;3.67;;;13.10;99.90;;;;;;5025153;28;20550;-59
2023/01/02 01:54:58;;;;;;;9.83;5.20;;;13.10;99.90;;;;;;5026544;28;20451;-60
2023/01/02 01:57:31;;;;;;;6.33;4.10;;;13.20;99.90;;;;;;5019078;28;20546;-57
2023/01/02 02:00:00;;;;;;;10.73;4.70;;;13.20;99.90;;;;;;5017329;28;20757;-54
2023/01/02 02:02:29;;;;;;;12.07;4.80;;;13.30;99.90;;;;;;5016651;28;20554;-60
2023/01/02 02:04:59;;;;;;;7.10;3.63;;;13.30;99.90;;;;;;5018842;28;20498;-60
2023/01/02 02:07:26;;;;;;;9.40;4.00;;;13.20;99.90;;;;;;5020849;28;20861;-57
2023/01/02 02:09:59;;;;;;;11.37;5.90;;;13.20;99.90;;;;;;5020509;28;20464;-59
2023/01/02 02:12:28;;;;;;;6.70;3.83;;;13.10;99.90;;;;;;5020371;28;20503;-59
2023/01/02 02:14:55;;;;;;;8.40;5.00;;;13.10;99.90;;;;;;5020653;28;20534;-61
2023/01/02 02:17:32;;;;;;;7.50;4.77;;;13.10;99.90;;;;;;5020335;28;20570;-61
2023/01/02 02:20:21;;;;;;;6.90;3.50;;;13.10;99.90;;;;;;5025632;28;20460;-59
2023/01/02 02:23:24;;;;;;;8.00;4.27;;;13.00;1.00;;;;;;5028890;28;20431;-56
2023/01/02 02:26:30;;;;;;;9.40;5.67;;;13.00;1.00;;;;;;5029563;28;20460;-60
2023/01/02 02:29:27;;;;;;;6.93;3.80;;;13.00;1.00;;;;;;4971540;28;20454;-57
2023/01/02 02:32:04;;;;;;;6.20;4.10;;;13.00;1.00;;;;;;5029952;28;20545;-59
2023/01/02 02:34:40;;;;;;;7.37;4.00;;;13.00;1.00;;;;;;5029205;28;20903;-61
2023/01/02 02:37:14;;;;;;;7.57;4.40;;;13.00;99.90;;;;;;5028827;28;20477;-60
2023/01/02 02:40:00;;;;;;;9.13;4.53;;;13.00;1.00;;;;;;5027321;28;20948;-60
2023/01/02 02:42:36;;;;;;;17.53;4.37;;;13.00;1.00;;;;;;5028113;28;20456;-60
2023/01/02 02:45:09;;;;;;;7.37;4.50;;;13.00;1.00;;;;;;5027883;28;20920;-60
2023/01/02 02:47:48;;;;;;;6.17;3.50;;;13.00;99.90;;;;;;5027622;28;20452;-61
2023/01/02 02:50:22;;;;;;;16.70;4.10;;;13.00;99.90;;;;;;5026763;28;20479;-60
2023/01/02 02:53:04;;;;;;;9.13;4.00;;;13.00;99.90;;;;;;5027799;28;20465;-60
2023/01/02 02:55:41;;;;;;;8.10;3.80;;;13.10;99.90;;;;;;5018041;28;20457;-60
2023/01/02 02:58:08;;;;;;;7.67;3.87;;;13.20;99.90;;;;;;5028213;28;20491;-59
2023/01/02 03:00:35;;;;;;;7.43;4.73;;;13.20;99.90;;;;;;5027266;28;20464;-60
2023/01/02 03:03:17;;;;;;;6.77;4.13;;;13.20;99.90;;;;;;5028311;28;20459;-61
2023/01/02 03:05:59;;;;;;;10.90;4.40;;;13.20;99.90;;;;;;5025516;28;20570;-60
2023/01/02 03:08:36;;;;;;;10.00;4.77;;;13.20;99.90;;;;;;5027341;28;20511;-60
2023/01/02 03:11:04;;;;;;;7.47;4.17;;;13.10;99.90;;;;;;5027604;28;21020;-59
2023/01/02 03:13:43;;;;;;;7.23;4.07;;;13.10;99.90;;;;;;5027303;28;20512;-60
2023/01/02 03:16:13;;;;;;;6.57;3.70;;;13.00;1.00;;;;;;5017557;28;20460;-57
2023/01/02 03:18:52;;;;;;;9.67;4.17;;;12.90;1.00;;;;;;5023610;28;20488;-59
2023/01/02 03:21:27;;;;;;;9.50;4.30;;;12.80;1.00;;;;;;5026413;28;20494;-60
2023/01/02 03:23:58;;;;;;;11.10;4.83;;;12.70;1.00;;;;;;5027104;28;20433;-59
2023/01/02 03:26:30;;;;;;;12.50;4.70;;;12.70;1.00;;;;;;5018007;28;20470;-60
2023/01/02 03:29:02;;;;;;;10.10;5.03;;;12.70;1.00;;;;;;5026294;28;20480;-61
2023/01/02 03:31:31;;;;;;;5.63;3.90;;;12.60;1.00;;;;;;5027240;28;20466;-60
2023/01/02 03:34:06;;;;;;;9.53;4.13;;;12.60;1.00;;;;;;5028683;28;20463;-59
2023/01/02 03:36:35;;;;;;;14.00;4.63;;;12.70;1.00;;;;;;5028428;28;20433;-60
2023/01/02 03:39:11;;;;;;;9.50;4.40;;;12.70;1.00;;;;;;5026338;28;20499;-56
2023/01/02 03:41:42;;;;;;;8.13;4.47;;;12.70;1.00;;;;;;5024116;28;20464;-58
2023/01/02 03:44:12;;;;;;;7.47;3.70;;;12.80;1.00;;;;;;5034949;28;20470;-58
2023/01/02 03:46:45;;;;;;;6.63;4.30;;;12.80;1.00;;;;;;5035487;28;20456;-60
2023/01/02 03:49:17;;;;;;;7.40;4.13;;;12.80;1.00;;;;;;5037929;28;20459;-60
2023/01/02 03:51:45;;;;;;;11.73;3.50;;;12.80;1.00;;;;;;5037571;28;20910;-55
2023/01/02 03:54:12;;;;;;;8.63;4.20;;;12.80;99.90;;;;;;5038449;28;20469;-56
2023/01/02 03:56:47;;;;;;;10.57;4.40;;;12.80;99.90;;;;;;5038429;28;20463;-58
2023/01/02 03:59:23;;;;;;;8.30;4.13;;;12.90;99.90;;;;;;5038382;28;20494;-58
2023/01/02 04:02:00;;;;;;;6.73;3.40;;;13.00;99.90;;;;;;5037299;28;20454;-58
2023/01/02 04:04:37;;;;;;;9.90;4.37;;;13.10;99.90;;;;;;5036906;28;20463;-59
2023/01/02 04:07:11;;;;;;;8.03;3.87;;;13.10;99.90;;;;;;5016917;28;20455;-57
2023/01/02 04:09:40;;;;;;;7.87;4.73;;;13.00;99.90;;;;;;5016896;28;20458;-59
2023/01/02 04:12:11;;;;;;;6.57;3.80;;;13.00;99.90;;;;;;5016757;28;20464;-59
2023/01/02 04:14:43;;;;;;;9.43;3.60;;;12.90;99.90;;;;;;5016889;28;20460;-60
2023/01/02 04:17:13;;;;;;;7.97;4.30;;;12.90;99.90;;;;;;5017341;28;20460;-59
2023/01/02 04:19:46;;;;;;;13.93;4.83;;;12.90;99.90;;;;;;5018408;28;20503;-57
2023/01/02 04:22:18;;;;;;;13.23;4.23;;;12.90;99.90;;;;;;5018683;28;20461;-53
2023/01/02 04:24:54;;;;;;;8.07;3.80;;;12.90;99.90;;;;;;5017926;28;20470;-58
2023/01/02 04:27:25;;;;;;;6.00;3.70;;;12.80;99.90;;;;;;5017361;28;20567;-60
2023/01/02 04:29:52;;;;;;;5.97;4.43;;;12.80;99.90;;;;;;5017069;28;20459;-60
2023/01/02 04:32:23;;;;;;;10.13;3.63;;;12.60;1.00;;;;;;5018006;28;20471;-60
2023/01/02 04:34:53;;;;;;;5.87;3.87;;;12.60;1.00;;;;;;5018274;28;20464;-61
2023/01/02 04:37:28;;;;;;;8.30;3.97;;;12.60;1.00;;;;;;5017909;28;20842;-62
2023/01/02 04:40:06;;;;;;;9.00;4.10;;;12.60;1.00;;;;;;5017363;28;20495;-61
2023/01/02 04:42:33;;;;;;;8.60;4.33;;;12.60;1.00;;;;;;5017946;28;20522;-60
2023/01/02 04:45:00;;;;;;;6.67;3.90;;;12.50;1.00;;;;;;5018129;28;20460;-58
2023/01/02 04:47:27;;;;;;;10.03;4.10;;;12.50;1.00;;;;;;5017999;28;20486;-57
2023/01/02 04:49:55;;;;;;;7.43;3.70;;;12.50;1.00;;;;;;5017666;28;20470;-58
2023/01/02 04:52:23;;;;;;;11.30;4.60;;;12.50;1.00;;;;;;5017829;28;20927;-60
2023/01/02 04:54:50;;;;;;;9.10;4.30;;;12.50;1.00;;;;;;5018109;28;20464;-60
2023/01/02 04:57:23;;;;;;;10.23;4.53;;;12.50;1.00;;;;;;5017679;28;20898;-60
2023/01/02 04:59:50;;;;;;;6.43;3.70;;;12.50;1.00;;;;;;5017396;28;20779;-59
2023/01/02 05:02:17;;;;;;;10.03;4.20;;;12.50;1.00;;;;;;5017611;28;20907;-57
2023/01/02 05:04:44;;;;;;;9.50;4.00;;;12.60;99.90;;;;;;5019499;28;20445;-55
2023/01/02 05:07:13;;;;;;;7.63;4.87;;;12.60;99.90;;;;;;5036793;28;20463;-57
2023/01/02 05:09:40;;;;;;;11.80;3.73;;;12.60;99.90;;;;;;5036803;28;20496;-58
2023/01/02 05:12:07;;;;;;;11.17;4.57;;;12.70;99.90;;;;;;5036927;28;20462;-61
2023/01/02 05:14:34;;;;;;;9.80;4.03;;;12.70;99.90;;;;;;5037353;28;20485;-60
2023/01/02 05:17:01;;;;;;;8.87;4.00;;;12.70;99.90;;;;;;5036666;28;20448;-56
2023/01/02 05:19:28;;;;;;;6.93;4.03;;;12.70;99.90;;;;;;5053120;28;20783;-59
2023/01/02 05:24:42;;;;;;;5.90;3.40;;;12.70;99.90;;;;;;5056342;28;20412;-53
2023/01/02 05:27:09;;;;;;;7.53;4.33;;;12.60;99.90;;;;;;5056844;28;20846;-59
2023/01/02 05:29:36;;;;;;;7.40;4.63;;;12.60;1.00;;;;;;5056959;28;20479;-59
2023/01/02 05:32:03;;;;;;;11.57;4.57;;;12.50;1.00;;;;;;5056957;28;20954;-59
2023/01/02 05:34:30;;;;;;;10.80;3.87;;;12.50;1.00;;;;;;5057097;28;20513;-57
2023/01/02 05:36:58;;;;;;;16.00;4.93;;;12.50;1.00;;;;;;5057042;28;20433;-57
2023/01/02 05:39:25;;;;;;;10.37;4.33;;;12.50;1.00;;;;;;5057872;28;20494;-57
2023/01/02 05:41:55;;;;;;;12.60;4.20;;;12.50;1.00;;;;;;5060993;28;20468;-60
2023/01/02 05:44:22;;;;;;;10.23;5.13;;;12.40;1.00;;;;;;5060727;28;20498;-60
2023/01/02 05:46:49;;;;;;;12.50;3.93;;;12.40;99.90;;;;;;5059816;28;20438;-59
2023/01/02 05:49:16;;;;;;;6.93;4.10;;;12.50;99.90;;;;;;5060186;28;20493;-57
2023/01/02 05:51:44;;;;;;;9.20;3.53;;;12.50;99.90;;;;;;5060510;28;20557;-59
2023/01/02 05:54:11;;;;;;;7.60;4.57;;;12.50;99.90;;;;;;5060272;28;20894;-59
2023/01/02 05:56:38;;;;;;;10.93;5.17;;;12.50;99.90;;;;;;5059333;28;20924;-60
2023/01/02 05:59:08;;;;;;;8.77;3.53;;;12.60;99.90;;;;;;5058420;28;20482;-56
2023/01/02 06:01:35;;;;;;;11.67;4.97;;;12.60;99.90;;;;;;5059156;28;20458;-59
2023/01/02 06:04:03;;;;;;;9.67;3.70;;;12.70;99.90;;;;;;5059222;28;20980;-60
2023/01/02 06:06:32;;;;;;;5.07;3.60;;;12.70;99.90;;;;;;5058949;28;20532;-57
2023/01/02 06:09:00;;;;;;;8.53;3.87;;;12.70;99.90;;;;;;5059823;28;20531;-59
2023/01/02 06:11:27;;;;;;;7.00;3.80;;;12.70;99.90;;;;;;5059293;28;20464;-58
2023/01/02 06:13:55;;;;;;;13.07;3.67;;;12.70;99.90;;;;;;5060456;28;20462;-58
2023/01/02 06:16:24;;;;;;;7.27;4.40;;;12.70;99.90;;;;;;5060346;28;20462;-58
2023/01/02 06:18:52;;;;;;;11.80;3.57;;;12.70;99.90;;;;;;5060555;28;20499;-59
2023/01/02 06:21:21;;;;;;;9.07;3.13;;;12.70;99.90;;;;;;5060286;28;20461;-59
2023/01/02 06:23:49;;;;;;;10.77;4.87;;;12.70;99.90;;;;;;5060038;28;20754;-57
2023/01/02 06:26:17;;;;;;;12.17;4.30;;;12.70;99.90;;;;;;5060351;28;20466;-57
2023/01/02 06:28:45;;;;;;;7.40;4.57;;;12.70;99.90;;;;;;5060025;28;20909;-55
2023/01/02 06:31:17;;;;;;;9.63;5.10;;;12.80;99.90;;;;;;5059494;28;20454;-55
2023/01/02 06:33:45;;;;;;;7.20;4.53;;;12.70;99.90;;;;;;5059849;28;20523;-55
2023/01/02 06:36:14;;;;;;;5.70;3.70;;;12.80;99.90;;;;;;5042862;28;20474;-58
2023/01/02 06:38:42;;;;;;;8.53;3.47;;;12.80;99.90;;;;;;5039220;28;20539;-55
2023/01/02 06:41:10;;;;;;;7.77;3.73;;;12.80;99.90;;;;;;5039572;28;20947;-54
2023/01/02 06:43:42;;;;;;;6.37;3.33;;;12.80;99.90;;;;;;5039379;28;20438;-54
2023/01/02 06:46:10;;;;;;;6.90;4.33;;;12.80;99.90;;;;;;5039468;28;20923;-57
2023/01/02 06:48:38;;;;;;;10.30;3.60;;;12.80;99.90;;;;;;5039464;28;20474;-59
2023/01/02 06:51:07;;;;;;;7.73;4.13;;;12.80;99.90;;;;;;5038891;28;20463;-59
2023/01/02 06:53:36;;;;;;;10.33;4.07;;;12.80;99.90;;;;;;5039184;28;20470;-56
2023/01/02 06:56:03;;;;;;;14.30;4.00;;;12.70;99.90;;;;;;5039820;28;20459;-59
2023/01/02 06:58:32;;;;;;;5.03;3.00;;;12.70;99.90;;;;;;5038949;28;20463;-58
2023/01/02 07:01:03;;;;;;;8.57;4.70;;;12.70;99.90;;;;;;5039606;28;20497;-57
2023/01/02 07:03:30;;;;;;;11.27;6.50;;;12.70;99.90;;;;;;5039423;28;20445;-55
2023/01/02 07:06:01;;;;;;;14.30;3.87;;;12.60;99.90;;;;;;5039193;28;20487;-57
2023/01/02 07:08:30;;;;;;;6.33;4.17;;;12.60;99.90;;;;;;5039478;28;20740;-62
2023/01/02 07:11:07;;;;;;;7.00;3.90;;;12.50;1.00;;;;;;5033477;28;20455;-62
2023/01/02 07:13:34;;;;;;;12.40;3.93;;;12.40;1.00;;;;;;5020584;28;20471;-62
2023/01/02 07:16:03;;;;;;;7.13;3.67;;;12.40;1.00;;;;;;5039060;28;20908;-62
2023/01/02 07:18:31;;;;;;;11.13;5.97;;;12.30;1.00;;;;;;5039438;28;20459;-60
2023/01/02 07:20:58;;;;;;;4.90;3.53;;;12.20;1.00;;;;;;5039004;28;21005;-60
2023/01/02 07:23:26;;;;;;;10.90;4.80;;;12.10;1.00;;;;;;5029927;28;20464;-59
2023/01/02 07:25:56;;;;;;;10.17;5.03;;;12.10;1.00;;;;;;5029870;28;20464;-61
2023/01/02 07:28:23;;;;;;;7.00;5.27;;;12.00;1.00;;;;;;5038997;28;20731;-62
2023/01/02 07:30:52;;;;;;;11.13;4.03;;;11.90;1.00;;;;;;5038897;28;20460;-61
2023/01/02 07:33:19;;;;;;;7.03;4.77;;;11.90;1.00;;;;;;5038836;28;20486;-63
2023/01/02 07:35:46;;;;;;;6.80;4.00;;;11.90;1.00;;;;;;5038621;28;20771;-59
2023/01/02 07:38:13;;;;;;;10.30;3.80;;;11.90;1.00;;;;;;5038543;28;20463;-57
2023/01/02 07:40:40;;;;;;;10.27;4.53;;;11.90;1.00;;;;;;5038503;28;20491;-59
2023/01/02 07:43:09;;;;;;;7.30;3.63;;;11.80;1.00;;;;;;5038651;28;20467;-61
2023/01/02 07:45:36;;;;;;;9.57;4.90;;;11.70;1.00;;;;;;5038446;28;20478;-62
2023/01/02 07:48:03;;;;;;;7.47;4.83;;;11.70;59.20;;;;;;5038288;28;20461;-60
2023/01/02 07:50:31;;;;;;;11.10;4.63;;;11.60;99.90;;;;;;5038431;28;20455;-62
2023/01/02 07:52:58;;;;;;;10.03;5.13;;;11.50;99.90;;;;;;5036457;28;20455;-61
2023/01/02 07:55:25;;;;;;;12.00;5.93;;;11.50;99.90;;;;;;5031003;28;20485;-62
2023/01/02 07:57:52;;;;;;;7.73;4.47;;;11.40;1.00;;;;;;5036809;28;20455;-62
2023/01/02 08:00:21;;;;;;;9.23;4.33;;;11.40;1.00;;;;;;5037698;28;20529;-63
2023/01/02 08:02:48;;;;;;;10.17;4.30;;;11.40;1.00;;;;;;5037093;28;20465;-63
2023/01/02 08:05:16;;;;;;;14.80;4.80;;;11.30;98.50;;;;;;5037682;28;20526;-63
2023/01/02 08:07:44;;;;;;;9.43;5.40;;;11.30;99.90;;;;;;5022771;28;20468;-62
2023/01/02 08:10:11;;;;;;;11.33;7.00;;;11.30;1.00;;;;;;5018229;28;20468;-63
2023/01/02 08:12:39;;;;;;;12.50;5.33;;;11.30;99.90;;;;;;5018856;28;20530;-62
2023/01/02 08:15:07;;;;;;;7.37;6.23;;;11.20;39.40;;;;;;5018094;28;20465;-62
2023/01/02 08:17:35;;;;;;;6.20;5.10;;;11.20;1.00;;;;;;5016861;28;20471;-64
2023/01/02 08:20:02;;;;;;;8.10;5.50;;;11.10;99.90;;;;;;5016981;28;20492;-63
2023/01/02 08:22:30;;;;;;;7.53;5.00;;;11.10;26.10;;;;;;5016726;28;20522;-62
2023/01/02 08:24:57;;;;;;;10.13;5.10;;;11.10;99.90;;;;;;5017350;28;20999;-63
2023/01/02 08:27:24;;;;;;;11.27;5.30;;;11.10;99.90;;;;;;5017132;28;20464;-63
2023/01/02 08:29:51;;;;;;;11.57;5.13;;;11.10;99.90;;;;;;5016650;28;20472;-63
2023/01/02 08:32:18;;;;;;;10.23;5.13;;;11.10;99.90;;;;;;5018412;28;20468;-65
2023/01/02 08:34:47;;;;;;;8.43;4.93;;;11.10;99.90;;;;;;5018501;28;20470;-63
2023/01/02 08:37:14;;;;;;;8.67;5.03;;;11.10;99.90;;;;;;5018497;28;20464;-63
2023/01/02 08:39:41;;;;;;;8.20;4.70;;;11.10;99.90;;;;;;5018384;28;20496;-63
2023/01/02 08:42:09;;;;;;;12.83;5.60;;;11.10;99.90;;;;;;5019026;28;20486;-62
2023/01/02 08:44:37;;;;;;;7.33;4.70;;;11.10;99.90;;;;;;5018285;28;20468;-62
2023/01/02 08:47:04;;;;;;;8.37;4.30;;;11.00;99.90;;;;;;5017912;28;20467;-61
2023/01/02 08:49:31;;;;;;;5.60;4.40;;;11.10;99.90;;;;;;5017761;28;20470;-62
2023/01/02 08:52:00;;;;;;;7.10;4.63;;;11.10;99.90;;;;;;5017787;28;20446;-62
2023/01/02 08:54:27;;;;;;;8.53;4.90;;;11.10;99.90;;;;;;5017879;28;20988;-61
2023/01/02 08:56:54;;;;;;;6.10;4.60;;;11.10;99.90;;;;;;5017193;28;20486;-60
2023/01/02 08:59:23;;;;;;;6.73;4.07;;;11.10;99.90;;;;;;5017594;28;20877;-61
2023/01/02 09:01:51;;;;;;;5.83;4.10;;;11.10;99.90;;;;;;5017430;28;20460;-61
2023/01/02 09:04:18;;;;;;;6.80;4.23;;;11.20;99.90;;;;;;5031966;28;20474;-61
2023/01/02 09:06:46;;;;;;;6.80;4.13;;;11.20;99.90;;;;;;5024408;28;20493;-60
2023/01/02 09:09:17;;;;;;;7.10;4.03;;;11.20;99.90;;;;;;5022869;28;20874;-63
2023/01/02 09:11:48;;;;;;;9.60;4.27;;;11.30;99.90;;;;;;5016857;28;20507;-63
2023/01/02 09:14:17;;;;;;;5.33;4.23;;;11.30;99.90;;;;;;5016411;28;20801;-61
2023/01/02 09:16:44;;;;;;;6.17;4.47;;;11.30;99.90;;;;;;5017003;28;20570;-62
2023/01/02 09:19:11;;;;;;;4.53;3.83;;;11.40;99.90;;;;;;5017192;28;20460;-61
2023/01/02 09:21:39;;;;;;;8.60;4.90;;;11.40;99.90;;;;;;5017166;28;20948;-61
2023/01/02 09:24:07;;;;;;;5.10;3.40;;;11.40;99.90;;;;;;5017327;28;20542;-61
2023/01/02 09:26:37;;;;;;;5.80;3.40;;;11.30;1.00;;;;;;5017656;28;20469;-61
2023/01/02 09:29:04;;;;;;;3.83;3.40;;;11.30;99.90;;;;;;5017067;28;20510;-61
2023/01/02 09:31:31;;;;;;;4.80;3.10;;;11.30;1.00;;;;;;5016790;28;20919;-58
2023/01/02 09:33:58;;;;;;;4.57;3.47;;;11.30;8.30;;;;;;5017074;28;20467;-62
2023/01/02 09:36:25;;;;;;;5.90;3.60;;;11.20;99.90;;;;;;5017566;28;20495;-58
2023/01/02 09:38:53;;;;;;;5.30;3.97;;;11.20;1.00;;;;;;5016532;28;20482;-62
2023/01/02 09:41:31;;;;;;;7.43;3.60;;;11.20;99.90;;;;;;5016950;28;20519;-62
2023/01/02 09:44:03;;;;;;;4.30;2.10;;;11.00;99.90;;;;;;5017076;28;20901;-63
2023/01/02 09:46:36;;;;;;;2.30;1.80;;;10.80;99.90;;;;;;5017215;28;20475;-62
2023/01/02 09:49:04;;;;;;;3.43;1.63;;;10.60;1.00;;;;;;5016512;28;20464;-63
2023/01/02 09:51:33;;;;;;;2.90;1.80;;;10.40;1.00;;;;;;5016886;28;20470;-63
2023/01/02 09:54:01;;;;;;;3.33;2.00;;;10.40;99.90;;;;;;5017084;28;20468;-63
2023/01/02 09:56:34;;;;;;;2.20;1.70;;;10.40;1.00;;;;;;5016800;28;20889;-63
2023/01/02 09:59:10;;;;;;;2.80;2.00;;;10.40;99.90;;;;;;5016554;28;20472;-61
2023/01/02 10:01:48;;;;;;;2.13;1.60;;;10.30;99.90;;;;;;5016641;28;20535;-62
2023/01/02 10:04:24;;;;;;;2.33;2.00;;;10.40;1.00;;;;;;5017230;28;20762;-62
2023/01/02 10:07:02;;;;;;;2.57;2.00;;;10.30;1.00;;;;;;5016914;28;20810;-62
2023/01/02 10:09:38;;;;;;;2.83;2.00;;;10.20;1.00;;;;;;5016605;28;20464;-62
2023/01/02 10:12:11;;;;;;;3.60;2.50;;;10.20;1.00;;;;;;5017054;28;20559;-64
2023/01/02 10:14:54;;;;;;;2.80;2.20;;;10.20;99.90;;;;;;5016904;28;20464;-61
2023/01/02 10:17:23;;;;;;;4.10;3.07;;;10.20;1.00;;;;;;5016424;28;20470;-63
2023/01/02 10:19:56;;;;;;;6.40;2.57;;;10.20;99.90;;;;;;5016457;28;20459;-62
2023/01/02 10:22:32;;;;;;;4.13;3.00;;;10.30;99.90;;;;;;5016924;28;20467;-63
2023/01/02 10:25:06;;;;;;;2.87;2.57;;;10.30;99.90;;;;;;5017454;28;20463;-62
2023/01/02 10:27:38;;;;;;;4.53;2.90;;;10.30;1.00;;;;;;5020090;28;20927;-63
2023/01/02 10:30:18;;;;;;;3.40;3.10;;;10.30;99.90;;;;;;5019255;28;20463;-62
2023/01/02 10:32:51;;;;;;;3.13;2.80;;;10.20;1.00;;;;;;5020555;28;20533;-61
2023/01/02 10:35:33;;;;;;;3.87;3.47;;;10.20;1.00;;;;;;5019845;28;20464;-61
2023/01/02 10:38:01;;;;;;;3.80;3.23;;;10.10;99.90;;;;;;5020075;28;20464;-61
2023/01/02 10:40:30;;;;;;;6.03;4.20;;;10.20;99.90;;;;;;5027681;28;20790;-62
2023/01/02 10:42:59;;;;;;;3.97;3.60;;;10.20;1.00;;;;;;5030338;28;20550;-61
2023/01/02 10:45:29;;;;;;;4.70;4.30;;;10.30;29.70;;;;;;5024054;28;20468;-61
2023/01/02 10:47:56;;;;;;;4.93;4.43;;;10.20;99.90;;;;;;5024481;28;20530;-62
2023/01/02 10:50:26;;;;;;;9.87;4.30;;;10.30;1.00;;;;;;5028591;28;20467;-60
2023/01/02 10:53:04;;;;;;;5.13;4.50;;;10.30;99.90;;;;;;5018787;28;20898;-62
2023/01/02 10:55:33;;;;;;;5.03;4.53;;;10.30;1.00;;;;;;5017556;28;20460;-62
2023/01/02 10:58:05;;;;;;;4.93;4.47;;;10.30;95.30;;;;;;5020467;28;20795;-63
2023/01/02 11:00:36;;;;;;;5.40;4.90;;;10.30;99.90;;;;;;5030474;28;20779;-63
2023/01/02 11:03:13;;;;;;;7.93;4.47;;;10.40;1.00;;;;;;5025570;28;20447;-63
2023/01/02 11:05:46;;;;;;;7.77;4.90;;;10.40;1.00;;;;;;5027224;28;20494;-63
2023/01/02 11:08:14;;;;;;;5.87;5.27;;;10.40;1.00;;;;;;5037861;28;20463;-63
2023/01/02 11:10:42;;;;;;;6.00;5.50;;;10.40;1.00;;;;;;5030422;28;20468;-63
2023/01/02 11:13:12;;;;;;;6.10;5.50;;;10.30;99.90;;;;;;5017395;28;20464;-64
2023/01/02 11:15:49;;;;;;;6.60;6.00;;;10.30;99.90;;;;;;5017310;28;20460;-63
2023/01/02 11:18:22;;;;;;;7.27;6.57;;;10.40;1.00;;;;;;5027857;28;20453;-65
2023/01/02 11:20:52;;;;;;;6.50;5.90;;;10.30;1.00;;;;;;5032949;28;20495;-64
2023/01/02 11:23:24;;;;;;;6.60;6.00;;;10.40;1.00;;;;;;5027320;28;20513;-64
2023/01/02 11:25:53;;;;;;;6.90;6.20;;;10.50;13.50;;;;;;5026075;28;20520;-63
2023/01/02 11:28:23;;;;;;;7.03;6.43;;;10.50;1.00;;;;;;5032467;28;20904;-63
2023/01/02 11:30:54;;;;;;;7.37;6.57;;;10.30;74.30;;;;;;5025118;28;20562;-64
2023/01/02 11:33:28;;;;;;;10.50;7.07;;;10.30;28.30;;;;;;5037019;28;20477;-63
2023/01/02 11:35:57;;;;;;;7.60;6.90;;;10.20;1.00;;;;;;5036549;28;20474;-62
2023/01/02 11:38:27;;;;;;;7.87;7.07;;;10.20;50.40;;;;;;5037282;28;20469;-64
2023/01/02 11:40:57;;;;;;;7.27;6.57;;;10.20;1.00;;;;;;5037135;28;20921;-64
2023/01/02 11:43:47;;;;;;;7.37;6.30;;;10.20;1.00;;;;;;5025542;28;20434;-63
2023/01/02 11:46:32;;;;;;;7.40;6.70;;;10.10;99.90;;;;;;5023499;28;20850;-62
2023/01/02 11:49:03;;;;;;;6.63;6.03;;;10.10;99.90;;;;;;5023736;28;20466;-63
2023/01/02 11:51:34;;;;;;;8.13;7.33;;;10.10;1.00;;;;;;5029479;28;20473;-65
2023/01/02 11:54:04;;;;;;;8.67;7.40;;;10.10;1.00;;;;;;5027769;28;20814;-62
2023/01/02 11:56:35;;;;;;;8.20;7.40;;;10.10;99.90;;;;;;5025924;28;20459;-63
2023/01/02 11:59:06;;;;;;;8.60;7.00;;;10.00;99.90;;;;;;5026151;28;20468;-63
2023/01/02 12:01:42;;;;;;;11.13;7.70;;;10.10;99.90;;;;;;5027959;28;20492;-63
2023/01/02 12:04:10;;;;;;;8.83;7.47;;;10.00;99.90;;;;;;5028291;28;20513;-63
2023/01/02 12:06:53;;;;;;;7.77;6.97;;;10.10;99.90;;;;;;5027514;28;20483;-63
2023/01/02 12:09:30;;;;;;;9.60;8.70;;;10.10;99.90;;;;;;5025454;28;20948;-63
2023/01/02 12:12:21;;;;;;;8.77;7.90;;;10.10;99.90;;;;;;5025957;28;20939;-62
2023/01/02 12:15:35;;;;;;;9.57;8.00;;;10.00;99.90;;;;;;5019731;28;20464;-62
2023/01/02 12:18:13;;;;;;;8.27;7.47;;;10.00;99.90;;;;;;4938310;29;20886;-63
2023/01/02 12:20:49;;;;;;;15.10;10.77;;;10.00;99.90;;;;;;4951374;28;20477;-63
2023/01/02 12:23:31;;;;;;;10.33;9.20;;;10.00;99.90;;;;;;5002601;28;20473;-62
2023/01/02 12:26:07;;;;;;;11.60;8.47;;;10.00;99.90;;;;;;5034051;28;20904;-62
2023/01/02 12:29:06;;;;;;;13.23;10.37;;;9.90;99.90;;;;;;5037155;28;20433;-60
2023/01/02 12:31:58;;;;;;;21.87;19.47;;;9.90;99.90;;;;;;5029710;28;20868;-62
2023/01/02 12:34:48;;;;;;;16.57;14.83;;;10.00;99.90;;;;;;5035547;28;20463;-62
2023/01/02 12:37:26;;;;;;;14.90;13.23;;;9.90;99.90;;;;;;5028885;28;20446;-61
2023/01/02 12:40:19;;;;;;;13.63;12.20;;;10.00;99.90;;;;;;5017151;28;20464;-63
2023/01/02 12:43:12;;;;;;;16.20;11.53;;;10.00;99.90;;;;;;5006921;28;20519;-62
2023/01/02 12:45:47;;;;;;;10.10;9.00;;;10.00;99.90;;;;;;5017220;28;20434;-61
2023/01/02 12:48:30;;;;;;;13.23;10.00;;;10.10;99.90;;;;;;5025185;28;20466;-64
2023/01/02 12:51:14;;;;;;;19.53;17.57;;;10.10;99.90;;;;;;5021706;28;20448;-60
2023/01/02 12:54:07;;;;;;;21.83;19.73;;;10.10;99.90;;;;;;5024908;28;20452;-62
2023/01/02 12:56:43;;;;;;;15.03;12.90;;;10.10;99.90;;;;;;5024319;28;20891;-63
2023/01/02 12:59:40;;;;;;;18.63;16.63;;;10.00;1.00;;;;;;5017724;28;20550;-61
2023/01/02 13:02:19;;;;;;;30.67;25.17;;;10.00;99.90;;;;;;5019596;28;20502;-64
2023/01/02 13:04:51;;;;;;;36.70;28.63;;;10.00;1.00;;;;;;5022973;28;20460;-60
2023/01/02 13:07:29;;;;;;;25.03;19.53;;;10.00;1.00;;;;;;5023617;28;20525;-61
2023/01/02 13:10:00;;;;;;;29.00;19.97;;;10.10;67.80;;;;;;5023137;28;20490;-61
2023/01/02 13:12:30;;;;;;;16.20;13.03;;;10.10;99.90;;;;;;5027326;28;20451;-61